sensor_id;sensor_type;location;lat;lon;timestamp;P1;durP1;ratioP1;P2;durP2;ratioP2
8929;SDS011;4500;49.074;9.110;2023-06-14T00:01:49;0.80;;;0.80;;
8929;SDS011;4500;49.074;9.110;2023-06-14T00:04:18;0.63;;;0.63;;
8929;SDS011;4500;49.074;9.110;2023-06-14T00:06:47;0.57;;;0.57;;
8929;SDS011;4500;49.074;9.110;2023-06-14T00:09:17;0.60;;;0.60;;
8929;SDS011;4500;49.074;9.110;2023-06-14T00:11:45;0.60;;;0.60;;
8929;SDS011;4500;49.074;9.110;2023-06-14T00:14:13;0.70;;;0.70;;
8929;SDS011;4500;49.074;9.110;2023-06-14T00:16:40;0.60;;;0.60;;
8929;SDS011;4500;49.074;9.110;2023-06-14T00:19:09;0.60;;;0.60;;
8929;SDS011;4500;49.074;9.110;2023-06-14T00:21:37;1.00;;;1.00;;
8929;SDS011;4500;49.074;9.110;2023-06-14T00:24:05;1.97;;;1.87;;
8929;SDS011;4500;49.074;9.110;2023-06-14T00:26:34;2.10;;;2.00;;
8929;SDS011;4500;49.074;9.110;2023-06-14T00:29:01;2.30;;;2.20;;
8929;SDS011;4500;49.074;9.110;2023-06-14T00:31:29;3.10;;;2.90;;
8929;SDS011;4500;49.074;9.110;2023-06-14T00:33:56;2.40;;;2.30;;
8929;SDS011;4500;49.074;9.110;2023-06-14T00:36:24;2.10;;;2.00;;
8929;SDS011;4500;49.074;9.110;2023-06-14T00:38:51;1.67;;;1.60;;
8929;SDS011;4500;49.074;9.110;2023-06-14T00:41:19;1.13;;;1.10;;
8929;SDS011;4500;49.074;9.110;2023-06-14T00:43:46;0.87;;;0.87;;
8929;SDS011;4500;49.074;9.110;2023-06-14T00:46:14;0.60;;;0.60;;
8929;SDS011;4500;49.074;9.110;2023-06-14T00:48:42;0.60;;;0.60;;
8929;SDS011;4500;49.074;9.110;2023-06-14T00:51:09;0.60;;;0.60;;
8929;SDS011;4500;49.074;9.110;2023-06-14T00:53:37;1.13;;;1.13;;
8929;SDS011;4500;49.074;9.110;2023-06-14T00:56:06;1.47;;;1.47;;
8929;SDS011;4500;49.074;9.110;2023-06-14T00:58:34;2.40;;;2.30;;
8929;SDS011;4500;49.074;9.110;2023-06-14T01:01:01;2.47;;;2.37;;
8929;SDS011;4500;49.074;9.110;2023-06-14T01:03:29;2.33;;;2.23;;
8929;SDS011;4500;49.074;9.110;2023-06-14T01:06:00;2.77;;;2.67;;
8929;SDS011;4500;49.074;9.110;2023-06-14T01:08:57;2.07;;;1.97;;
8929;SDS011;4500;49.074;9.110;2023-06-14T01:11:33;2.87;;;2.77;;
8929;SDS011;4500;49.074;9.110;2023-06-14T01:14:08;0.93;;;0.93;;
8929;SDS011;4500;49.074;9.110;2023-06-14T01:16:36;1.87;;;1.77;;
8929;SDS011;4500;49.074;9.110;2023-06-14T01:19:07;1.80;;;1.80;;
8929;SDS011;4500;49.074;9.110;2023-06-14T01:21:38;0.70;;;0.70;;
8929;SDS011;4500;49.074;9.110;2023-06-14T01:24:09;0.70;;;0.70;;
8929;SDS011;4500;49.074;9.110;2023-06-14T01:26:38;1.10;;;1.10;;
8929;SDS011;4500;49.074;9.110;2023-06-14T01:29:05;2.00;;;1.90;;
8929;SDS011;4500;49.074;9.110;2023-06-14T01:31:33;3.00;;;2.90;;
8929;SDS011;4500;49.074;9.110;2023-06-14T01:34:08;1.13;;;1.13;;
8929;SDS011;4500;49.074;9.110;2023-06-14T01:36:36;2.23;;;2.13;;
8929;SDS011;4500;49.074;9.110;2023-06-14T01:39:04;2.77;;;2.67;;
8929;SDS011;4500;49.074;9.110;2023-06-14T01:41:31;2.80;;;2.70;;
8929;SDS011;4500;49.074;9.110;2023-06-14T01:44:00;2.70;;;2.60;;
8929;SDS011;4500;49.074;9.110;2023-06-14T01:46:28;2.93;;;2.83;;
8929;SDS011;4500;49.074;9.110;2023-06-14T01:48:55;3.03;;;2.93;;
8929;SDS011;4500;49.074;9.110;2023-06-14T01:51:23;2.10;;;2.00;;
8929;SDS011;4500;49.074;9.110;2023-06-14T01:53:51;1.23;;;1.23;;
8929;SDS011;4500;49.074;9.110;2023-06-14T01:56:19;1.00;;;0.97;;
8929;SDS011;4500;49.074;9.110;2023-06-14T01:58:48;0.87;;;0.87;;
8929;SDS011;4500;49.074;9.110;2023-06-14T02:01:16;0.70;;;0.70;;
8929;SDS011;4500;49.074;9.110;2023-06-14T02:03:45;0.90;;;0.90;;
8929;SDS011;4500;49.074;9.110;2023-06-14T02:06:14;0.60;;;0.60;;
8929;SDS011;4500;49.074;9.110;2023-06-14T02:08:42;0.90;;;0.90;;
8929;SDS011;4500;49.074;9.110;2023-06-14T02:11:10;0.60;;;0.60;;
8929;SDS011;4500;49.074;9.110;2023-06-14T02:13:37;1.57;;;1.57;;
8929;SDS011;4500;49.074;9.110;2023-06-14T02:16:05;2.90;;;2.80;;
8929;SDS011;4500;49.074;9.110;2023-06-14T02:18:32;3.33;;;3.23;;
8929;SDS011;4500;49.074;9.110;2023-06-14T02:21:00;2.77;;;2.67;;
8929;SDS011;4500;49.074;9.110;2023-06-14T02:23:27;2.80;;;2.70;;
8929;SDS011;4500;49.074;9.110;2023-06-14T02:25:54;2.70;;;2.60;;
8929;SDS011;4500;49.074;9.110;2023-06-14T02:28:22;2.70;;;2.60;;
8929;SDS011;4500;49.074;9.110;2023-06-14T02:30:50;1.20;;;1.17;;
8929;SDS011;4500;49.074;9.110;2023-06-14T02:33:17;0.60;;;0.60;;
8929;SDS011;4500;49.074;9.110;2023-06-14T02:35:45;5.50;;;2.40;;
8929;SDS011;4500;49.074;9.110;2023-06-14T02:38:13;0.60;;;0.60;;
8929;SDS011;4500;49.074;9.110;2023-06-14T02:40:40;1.07;;;1.07;;
8929;SDS011;4500;49.074;9.110;2023-06-14T02:43:09;0.60;;;0.60;;
8929;SDS011;4500;49.074;9.110;2023-06-14T02:45:36;1.93;;;1.83;;
8929;SDS011;4500;49.074;9.110;2023-06-14T02:48:03;2.83;;;2.73;;
8929;SDS011;4500;49.074;9.110;2023-06-14T02:50:31;2.70;;;2.60;;
8929;SDS011;4500;49.074;9.110;2023-06-14T02:52:59;3.03;;;2.93;;
8929;SDS011;4500;49.074;9.110;2023-06-14T02:55:26;3.73;;;3.43;;
8929;SDS011;4500;49.074;9.110;2023-06-14T02:57:54;2.10;;;2.00;;
8929;SDS011;4500;49.074;9.110;2023-06-14T03:00:21;2.10;;;2.00;;
8929;SDS011;4500;49.074;9.110;2023-06-14T03:02:49;1.07;;;1.07;;
8929;SDS011;4500;49.074;9.110;2023-06-14T03:05:18;0.60;;;0.60;;
8929;SDS011;4500;49.074;9.110;2023-06-14T03:07:48;0.97;;;0.97;;
8929;SDS011;4500;49.074;9.110;2023-06-14T03:10:17;0.80;;;0.80;;
8929;SDS011;4500;49.074;9.110;2023-06-14T03:12:44;0.70;;;0.70;;
8929;SDS011;4500;49.074;9.110;2023-06-14T03:15:12;0.60;;;0.60;;
8929;SDS011;4500;49.074;9.110;2023-06-14T03:17:44;0.90;;;0.90;;
8929;SDS011;4500;49.074;9.110;2023-06-14T03:20:12;1.97;;;1.87;;
8929;SDS011;4500;49.074;9.110;2023-06-14T03:22:40;0.63;;;0.63;;
8929;SDS011;4500;49.074;9.110;2023-06-14T03:25:08;1.07;;;1.07;;
8929;SDS011;4500;49.074;9.110;2023-06-14T03:27:35;2.03;;;1.93;;
8929;SDS011;4500;49.074;9.110;2023-06-14T03:30:03;2.70;;;2.60;;
8929;SDS011;4500;49.074;9.110;2023-06-14T03:32:31;2.87;;;2.77;;
8929;SDS011;4500;49.074;9.110;2023-06-14T03:35:00;2.90;;;2.80;;
8929;SDS011;4500;49.074;9.110;2023-06-14T03:37:27;3.27;;;3.17;;
8929;SDS011;4500;49.074;9.110;2023-06-14T03:39:55;3.70;;;3.50;;
8929;SDS011;4500;49.074;9.110;2023-06-14T03:42:22;2.67;;;2.57;;
8929;SDS011;4500;49.074;9.110;2023-06-14T03:44:49;1.53;;;1.47;;
8929;SDS011;4500;49.074;9.110;2023-06-14T03:47:17;0.70;;;0.70;;
8929;SDS011;4500;49.074;9.110;2023-06-14T03:49:45;1.33;;;1.33;;
8929;SDS011;4500;49.074;9.110;2023-06-14T03:52:13;0.60;;;0.60;;
8929;SDS011;4500;49.074;9.110;2023-06-14T03:54:41;0.60;;;0.60;;
8929;SDS011;4500;49.074;9.110;2023-06-14T03:57:30;2.70;;;2.60;;
8929;SDS011;4500;49.074;9.110;2023-06-14T03:59:58;3.57;;;3.43;;
8929;SDS011;4500;49.074;9.110;2023-06-14T04:02:25;3.37;;;3.27;;
8929;SDS011;4500;49.074;9.110;2023-06-14T04:04:55;3.53;;;3.43;;
8929;SDS011;4500;49.074;9.110;2023-06-14T04:07:23;2.70;;;2.60;;
8929;SDS011;4500;49.074;9.110;2023-06-14T04:09:51;1.83;;;1.77;;
8929;SDS011;4500;49.074;9.110;2023-06-14T04:12:19;1.10;;;1.07;;
8929;SDS011;4500;49.074;9.110;2023-06-14T04:14:46;0.83;;;0.83;;
8929;SDS011;4500;49.074;9.110;2023-06-14T04:17:14;0.63;;;0.63;;
8929;SDS011;4500;49.074;9.110;2023-06-14T04:19:42;0.60;;;0.60;;
8929;SDS011;4500;49.074;9.110;2023-06-14T04:22:09;0.73;;;0.73;;
8929;SDS011;4500;49.074;9.110;2023-06-14T04:24:37;1.30;;;1.30;;
8929;SDS011;4500;49.074;9.110;2023-06-14T04:27:05;2.10;;;2.00;;
8929;SDS011;4500;49.074;9.110;2023-06-14T04:29:33;2.17;;;2.07;;
8929;SDS011;4500;49.074;9.110;2023-06-14T04:32:00;2.70;;;2.60;;
8929;SDS011;4500;49.074;9.110;2023-06-14T04:34:28;2.40;;;2.30;;
8929;SDS011;4500;49.074;9.110;2023-06-14T04:37:01;2.63;;;2.53;;
8929;SDS011;4500;49.074;9.110;2023-06-14T04:39:28;3.17;;;3.07;;
8929;SDS011;4500;49.074;9.110;2023-06-14T04:41:55;2.57;;;2.47;;
8929;SDS011;4500;49.074;9.110;2023-06-14T04:44:23;1.53;;;1.43;;
8929;SDS011;4500;49.074;9.110;2023-06-14T04:46:57;2.80;;;2.70;;
8929;SDS011;4500;49.074;9.110;2023-06-14T04:49:25;2.13;;;2.03;;
8929;SDS011;4500;49.074;9.110;2023-06-14T04:51:56;2.03;;;1.93;;
8929;SDS011;4500;49.074;9.110;2023-06-14T04:54:28;2.80;;;2.70;;
8929;SDS011;4500;49.074;9.110;2023-06-14T04:56:58;3.23;;;3.13;;
8929;SDS011;4500;49.074;9.110;2023-06-14T04:59:27;2.20;;;2.10;;
8929;SDS011;4500;49.074;9.110;2023-06-14T05:02:00;2.40;;;2.30;;
8929;SDS011;4500;49.074;9.110;2023-06-14T05:04:28;2.63;;;2.53;;
8929;SDS011;4500;49.074;9.110;2023-06-14T05:06:55;2.97;;;2.87;;
8929;SDS011;4500;49.074;9.110;2023-06-14T05:09:23;2.10;;;2.00;;
8929;SDS011;4500;49.074;9.110;2023-06-14T05:11:50;1.10;;;1.07;;
8929;SDS011;4500;49.074;9.110;2023-06-14T05:14:18;0.70;;;0.70;;
8929;SDS011;4500;49.074;9.110;2023-06-14T05:16:46;0.70;;;0.70;;
8929;SDS011;4500;49.074;9.110;2023-06-14T05:19:15;1.20;;;1.13;;
8929;SDS011;4500;49.074;9.110;2023-06-14T05:21:44;0.70;;;0.70;;
8929;SDS011;4500;49.074;9.110;2023-06-14T05:24:13;0.73;;;0.73;;
8929;SDS011;4500;49.074;9.110;2023-06-14T05:26:41;0.60;;;0.60;;
8929;SDS011;4500;49.074;9.110;2023-06-14T05:29:09;0.77;;;0.77;;
8929;SDS011;4500;49.074;9.110;2023-06-14T05:31:37;1.23;;;1.23;;
8929;SDS011;4500;49.074;9.110;2023-06-14T05:34:04;2.57;;;2.43;;
8929;SDS011;4500;49.074;9.110;2023-06-14T05:36:32;2.10;;;2.00;;
8929;SDS011;4500;49.074;9.110;2023-06-14T05:38:59;2.40;;;2.30;;
8929;SDS011;4500;49.074;9.110;2023-06-14T05:41:29;1.93;;;1.83;;
8929;SDS011;4500;49.074;9.110;2023-06-14T05:43:57;2.60;;;2.50;;
8929;SDS011;4500;49.074;9.110;2023-06-14T05:46:24;1.37;;;1.37;;
8929;SDS011;4500;49.074;9.110;2023-06-14T05:48:52;1.90;;;1.80;;
8929;SDS011;4500;49.074;9.110;2023-06-14T05:51:20;0.90;;;0.90;;
8929;SDS011;4500;49.074;9.110;2023-06-14T05:53:48;0.87;;;0.87;;
8929;SDS011;4500;49.074;9.110;2023-06-14T05:56:16;0.60;;;0.60;;
8929;SDS011;4500;49.074;9.110;2023-06-14T05:58:45;0.50;;;0.50;;
8929;SDS011;4500;49.074;9.110;2023-06-14T06:01:13;0.70;;;0.70;;
8929;SDS011;4500;49.074;9.110;2023-06-14T06:03:41;0.70;;;0.70;;
8929;SDS011;4500;49.074;9.110;2023-06-14T06:06:13;0.70;;;0.70;;
8929;SDS011;4500;49.074;9.110;2023-06-14T06:08:40;0.60;;;0.60;;
8929;SDS011;4500;49.074;9.110;2023-06-14T06:11:09;0.60;;;0.60;;
8929;SDS011;4500;49.074;9.110;2023-06-14T06:13:37;1.10;;;1.10;;
8929;SDS011;4500;49.074;9.110;2023-06-14T06:16:05;1.93;;;1.83;;
8929;SDS011;4500;49.074;9.110;2023-06-14T06:18:33;2.23;;;2.13;;
8929;SDS011;4500;49.074;9.110;2023-06-14T06:21:01;2.20;;;2.10;;
8929;SDS011;4500;49.074;9.110;2023-06-14T06:23:30;1.93;;;1.83;;
8929;SDS011;4500;49.074;9.110;2023-06-14T06:25:57;2.00;;;1.90;;
8929;SDS011;4500;49.074;9.110;2023-06-14T06:28:24;1.57;;;1.57;;
8929;SDS011;4500;49.074;9.110;2023-06-14T06:30:52;1.80;;;1.70;;
8929;SDS011;4500;49.074;9.110;2023-06-14T06:33:20;0.77;;;0.77;;
8929;SDS011;4500;49.074;9.110;2023-06-14T06:35:48;2.33;;;2.20;;
8929;SDS011;4500;49.074;9.110;2023-06-14T06:38:15;0.50;;;0.50;;
8929;SDS011;4500;49.074;9.110;2023-06-14T06:40:45;0.60;;;0.60;;
8929;SDS011;4500;49.074;9.110;2023-06-14T06:43:12;0.67;;;0.67;;
8929;SDS011;4500;49.074;9.110;2023-06-14T06:45:40;0.50;;;0.50;;
8929;SDS011;4500;49.074;9.110;2023-06-14T06:48:08;0.80;;;0.80;;
8929;SDS011;4500;49.074;9.110;2023-06-14T06:50:38;0.90;;;0.90;;
8929;SDS011;4500;49.074;9.110;2023-06-14T06:53:05;2.40;;;2.30;;
8929;SDS011;4500;49.074;9.110;2023-06-14T06:55:33;1.70;;;1.60;;
8929;SDS011;4500;49.074;9.110;2023-06-14T06:58:00;2.00;;;1.90;;
8929;SDS011;4500;49.074;9.110;2023-06-14T07:00:28;2.30;;;2.20;;
8929;SDS011;4500;49.074;9.110;2023-06-14T07:02:55;5.00;;;4.53;;
8929;SDS011;4500;49.074;9.110;2023-06-14T07:05:24;1.10;;;1.10;;
8929;SDS011;4500;49.074;9.110;2023-06-14T07:07:51;0.77;;;0.77;;
8929;SDS011;4500;49.074;9.110;2023-06-14T07:10:21;0.87;;;0.87;;
8929;SDS011;4500;49.074;9.110;2023-06-14T07:12:50;0.73;;;0.73;;
8929;SDS011;4500;49.074;9.110;2023-06-14T07:15:18;0.70;;;0.70;;
8929;SDS011;4500;49.074;9.110;2023-06-14T07:17:46;0.60;;;0.60;;
8929;SDS011;4500;49.074;9.110;2023-06-14T07:20:14;0.70;;;0.70;;
8929;SDS011;4500;49.074;9.110;2023-06-14T07:22:42;0.50;;;0.50;;
8929;SDS011;4500;49.074;9.110;2023-06-14T07:25:10;1.10;;;1.10;;
8929;SDS011;4500;49.074;9.110;2023-06-14T07:27:43;1.90;;;1.23;;
8929;SDS011;4500;49.074;9.110;2023-06-14T07:30:12;0.70;;;0.70;;
8929;SDS011;4500;49.074;9.110;2023-06-14T07:32:39;0.50;;;0.50;;
8929;SDS011;4500;49.074;9.110;2023-06-14T07:35:08;1.13;;;1.13;;
8929;SDS011;4500;49.074;9.110;2023-06-14T07:37:36;1.27;;;1.27;;
8929;SDS011;4500;49.074;9.110;2023-06-14T07:40:03;1.57;;;1.57;;
8929;SDS011;4500;49.074;9.110;2023-06-14T07:42:34;1.43;;;1.43;;
8929;SDS011;4500;49.074;9.110;2023-06-14T07:45:02;1.73;;;1.63;;
8929;SDS011;4500;49.074;9.110;2023-06-14T07:47:31;1.43;;;1.43;;
8929;SDS011;4500;49.074;9.110;2023-06-14T07:49:59;1.97;;;1.87;;
8929;SDS011;4500;49.074;9.110;2023-06-14T07:52:26;1.63;;;1.63;;
8929;SDS011;4500;49.074;9.110;2023-06-14T07:54:54;1.23;;;1.23;;
8929;SDS011;4500;49.074;9.110;2023-06-14T07:57:21;0.80;;;0.80;;
8929;SDS011;4500;49.074;9.110;2023-06-14T07:59:49;0.77;;;0.77;;
8929;SDS011;4500;49.074;9.110;2023-06-14T08:02:17;0.60;;;0.60;;
8929;SDS011;4500;49.074;9.110;2023-06-14T08:04:48;0.57;;;0.57;;
8929;SDS011;4500;49.074;9.110;2023-06-14T08:07:15;1.13;;;1.13;;
8929;SDS011;4500;49.074;9.110;2023-06-14T08:09:43;0.70;;;0.70;;
8929;SDS011;4500;49.074;9.110;2023-06-14T08:12:10;0.50;;;0.50;;
8929;SDS011;4500;49.074;9.110;2023-06-14T08:14:39;0.70;;;0.70;;
8929;SDS011;4500;49.074;9.110;2023-06-14T08:17:09;0.80;;;0.80;;
8929;SDS011;4500;49.074;9.110;2023-06-14T08:19:36;1.23;;;1.23;;
8929;SDS011;4500;49.074;9.110;2023-06-14T08:22:04;1.27;;;1.27;;
8929;SDS011;4500;49.074;9.110;2023-06-14T08:24:32;1.47;;;1.47;;
8929;SDS011;4500;49.074;9.110;2023-06-14T08:26:59;1.47;;;1.47;;
8929;SDS011;4500;49.074;9.110;2023-06-14T08:29:28;2.00;;;1.90;;
8929;SDS011;4500;49.074;9.110;2023-06-14T08:31:57;1.37;;;1.37;;
8929;SDS011;4500;49.074;9.110;2023-06-14T08:34:25;1.50;;;1.50;;
8929;SDS011;4500;49.074;9.110;2023-06-14T08:36:52;1.30;;;1.30;;
8929;SDS011;4500;49.074;9.110;2023-06-14T08:39:20;0.90;;;0.90;;
8929;SDS011;4500;49.074;9.110;2023-06-14T08:41:48;1.73;;;1.63;;
8929;SDS011;4500;49.074;9.110;2023-06-14T08:44:17;0.60;;;0.60;;
8929;SDS011;4500;49.074;9.110;2023-06-14T08:46:45;0.57;;;0.57;;
8929;SDS011;4500;49.074;9.110;2023-06-14T08:49:16;0.60;;;0.60;;
8929;SDS011;4500;49.074;9.110;2023-06-14T08:51:44;0.60;;;0.60;;
8929;SDS011;4500;49.074;9.110;2023-06-14T08:54:14;0.50;;;0.50;;
8929;SDS011;4500;49.074;9.110;2023-06-14T08:56:42;0.53;;;0.53;;
8929;SDS011;4500;49.074;9.110;2023-06-14T08:59:10;0.60;;;0.60;;
8929;SDS011;4500;49.074;9.110;2023-06-14T09:01:38;0.60;;;0.60;;
8929;SDS011;4500;49.074;9.110;2023-06-14T09:04:17;0.50;;;0.50;;
8929;SDS011;4500;49.074;9.110;2023-06-14T09:06:46;0.57;;;0.57;;
8929;SDS011;4500;49.074;9.110;2023-06-14T09:09:20;0.73;;;0.73;;
8929;SDS011;4500;49.074;9.110;2023-06-14T09:11:47;0.50;;;0.50;;
8929;SDS011;4500;49.074;9.110;2023-06-14T09:14:18;0.60;;;0.60;;
8929;SDS011;4500;49.074;9.110;2023-06-14T09:16:46;0.57;;;0.57;;
8929;SDS011;4500;49.074;9.110;2023-06-14T09:19:20;0.60;;;0.60;;
8929;SDS011;4500;49.074;9.110;2023-06-14T09:21:49;0.70;;;0.70;;
8929;SDS011;4500;49.074;9.110;2023-06-14T09:24:19;0.57;;;0.57;;
8929;SDS011;4500;49.074;9.110;2023-06-14T09:26:47;0.50;;;0.50;;
8929;SDS011;4500;49.074;9.110;2023-06-14T09:29:16;0.60;;;0.60;;
8929;SDS011;4500;49.074;9.110;2023-06-14T09:31:46;0.50;;;0.50;;
8929;SDS011;4500;49.074;9.110;2023-06-14T09:34:14;0.50;;;0.50;;
8929;SDS011;4500;49.074;9.110;2023-06-14T09:36:46;0.60;;;0.60;;
8929;SDS011;4500;49.074;9.110;2023-06-14T09:39:16;0.67;;;0.67;;
8929;SDS011;4500;49.074;9.110;2023-06-14T09:41:44;0.53;;;0.53;;
8929;SDS011;4500;49.074;9.110;2023-06-14T09:44:11;0.90;;;0.90;;
8929;SDS011;4500;49.074;9.110;2023-06-14T09:46:47;3.70;;;2.77;;
8929;SDS011;4500;49.074;9.110;2023-06-14T09:49:15;0.50;;;0.50;;
8929;SDS011;4500;49.074;9.110;2023-06-14T09:51:44;0.60;;;0.60;;
8929;SDS011;4500;49.074;9.110;2023-06-14T09:54:16;0.60;;;0.60;;
8929;SDS011;4500;49.074;9.110;2023-06-14T09:56:45;0.53;;;0.53;;
8929;SDS011;4500;49.074;9.110;2023-06-14T09:59:16;0.60;;;0.60;;
8929;SDS011;4500;49.074;9.110;2023-06-14T10:01:53;1.00;;;1.00;;
8929;SDS011;4500;49.074;9.110;2023-06-14T10:04:25;1.50;;;1.50;;
8929;SDS011;4500;49.074;9.110;2023-06-14T10:06:54;1.07;;;1.07;;
8929;SDS011;4500;49.074;9.110;2023-06-14T10:09:21;0.77;;;0.77;;
8929;SDS011;4500;49.074;9.110;2023-06-14T10:11:49;0.60;;;0.60;;
8929;SDS011;4500;49.074;9.110;2023-06-14T10:14:17;0.60;;;0.60;;
8929;SDS011;4500;49.074;9.110;2023-06-14T10:16:51;0.50;;;0.50;;
8929;SDS011;4500;49.074;9.110;2023-06-14T10:19:48;0.60;;;0.60;;
8929;SDS011;4500;49.074;9.110;2023-06-14T10:22:22;0.67;;;0.67;;
8929;SDS011;4500;49.074;9.110;2023-06-14T10:24:59;1.63;;;1.63;;
8929;SDS011;4500;49.074;9.110;2023-06-14T10:27:27;1.53;;;1.53;;
8929;SDS011;4500;49.074;9.110;2023-06-14T10:32:25;1.40;;;1.40;;
8929;SDS011;4500;49.074;9.110;2023-06-14T10:35:01;1.03;;;1.03;;
8929;SDS011;4500;49.074;9.110;2023-06-14T10:37:32;1.63;;;1.63;;
8929;SDS011;4500;49.074;9.110;2023-06-14T10:40:00;1.43;;;1.43;;
8929;SDS011;4500;49.074;9.110;2023-06-14T10:42:33;2.80;;;2.70;;
8929;SDS011;4500;49.074;9.110;2023-06-14T10:45:01;1.27;;;1.27;;
8929;SDS011;4500;49.074;9.110;2023-06-14T10:47:29;1.37;;;1.37;;
8929;SDS011;4500;49.074;9.110;2023-06-14T10:52:32;1.40;;;1.40;;
8929;SDS011;4500;49.074;9.110;2023-06-14T10:55:13;0.50;;;0.50;;
8929;SDS011;4500;49.074;9.110;2023-06-14T10:57:52;0.60;;;0.60;;
8929;SDS011;4500;49.074;9.110;2023-06-14T11:00:26;1.17;;;1.17;;
8929;SDS011;4500;49.074;9.110;2023-06-14T11:05:53;0.90;;;0.90;;
8929;SDS011;4500;49.074;9.110;2023-06-14T11:11:08;1.00;;;1.00;;
8929;SDS011;4500;49.074;9.110;2023-06-14T11:13:37;1.57;;;1.47;;
8929;SDS011;4500;49.074;9.110;2023-06-14T11:16:13;1.10;;;1.10;;
8929;SDS011;4500;49.074;9.110;2023-06-14T11:18:46;0.50;;;0.50;;
8929;SDS011;4500;49.074;9.110;2023-06-14T11:21:17;1.37;;;1.27;;
8929;SDS011;4500;49.074;9.110;2023-06-14T11:23:51;0.60;;;0.60;;
8929;SDS011;4500;49.074;9.110;2023-06-14T11:26:26;6.50;;;2.63;;
8929;SDS011;4500;49.074;9.110;2023-06-14T11:28:58;1.17;;;1.17;;
8929;SDS011;4500;49.074;9.110;2023-06-14T11:31:27;1.17;;;1.17;;
8929;SDS011;4500;49.074;9.110;2023-06-14T11:33:56;1.57;;;1.57;;
8929;SDS011;4500;49.074;9.110;2023-06-14T11:36:31;0.90;;;0.90;;
8929;SDS011;4500;49.074;9.110;2023-06-14T11:39:01;1.10;;;1.10;;
8929;SDS011;4500;49.074;9.110;2023-06-14T11:41:36;1.07;;;1.07;;
8929;SDS011;4500;49.074;9.110;2023-06-14T11:44:05;1.03;;;1.03;;
8929;SDS011;4500;49.074;9.110;2023-06-14T11:46:34;1.17;;;1.17;;
8929;SDS011;4500;49.074;9.110;2023-06-14T11:49:02;1.00;;;1.00;;
8929;SDS011;4500;49.074;9.110;2023-06-14T11:51:34;1.17;;;1.17;;
8929;SDS011;4500;49.074;9.110;2023-06-14T11:54:02;1.00;;;1.00;;
8929;SDS011;4500;49.074;9.110;2023-06-14T11:56:31;1.00;;;1.00;;
8929;SDS011;4500;49.074;9.110;2023-06-14T11:58:59;2.03;;;1.93;;
8929;SDS011;4500;49.074;9.110;2023-06-14T12:01:29;1.27;;;1.27;;
8929;SDS011;4500;49.074;9.110;2023-06-14T12:03:57;1.37;;;1.37;;
8929;SDS011;4500;49.074;9.110;2023-06-14T12:06:27;1.00;;;1.00;;
8929;SDS011;4500;49.074;9.110;2023-06-14T12:09:02;2.20;;;2.10;;
8929;SDS011;4500;49.074;9.110;2023-06-14T12:11:35;1.13;;;1.13;;
8929;SDS011;4500;49.074;9.110;2023-06-14T12:14:04;1.20;;;1.20;;
8929;SDS011;4500;49.074;9.110;2023-06-14T12:16:32;1.13;;;1.13;;
8929;SDS011;4500;49.074;9.110;2023-06-14T12:19:09;1.20;;;1.20;;
8929;SDS011;4500;49.074;9.110;2023-06-14T12:21:46;0.57;;;0.57;;
8929;SDS011;4500;49.074;9.110;2023-06-14T12:24:17;0.60;;;0.60;;
8929;SDS011;4500;49.074;9.110;2023-06-14T12:26:45;0.60;;;0.60;;
8929;SDS011;4500;49.074;9.110;2023-06-14T12:29:13;4.03;;;3.70;;
8929;SDS011;4500;49.074;9.110;2023-06-14T12:31:41;0.50;;;0.50;;
8929;SDS011;4500;49.074;9.110;2023-06-14T12:34:09;0.60;;;0.60;;
8929;SDS011;4500;49.074;9.110;2023-06-14T12:36:37;0.80;;;0.80;;
8929;SDS011;4500;49.074;9.110;2023-06-14T12:39:08;0.83;;;0.83;;
8929;SDS011;4500;49.074;9.110;2023-06-14T12:41:36;1.57;;;1.47;;
8929;SDS011;4500;49.074;9.110;2023-06-14T12:44:03;1.00;;;1.00;;
8929;SDS011;4500;49.074;9.110;2023-06-14T12:46:31;0.93;;;0.93;;
8929;SDS011;4500;49.074;9.110;2023-06-14T12:48:59;1.40;;;1.40;;
8929;SDS011;4500;49.074;9.110;2023-06-14T12:51:26;1.27;;;1.27;;
8929;SDS011;4500;49.074;9.110;2023-06-14T12:53:54;1.03;;;1.03;;
8929;SDS011;4500;49.074;9.110;2023-06-14T12:56:22;0.90;;;0.90;;
8929;SDS011;4500;49.074;9.110;2023-06-14T12:58:50;0.60;;;0.60;;
8929;SDS011;4500;49.074;9.110;2023-06-14T13:01:18;0.50;;;0.50;;
8929;SDS011;4500;49.074;9.110;2023-06-14T13:03:46;0.70;;;0.70;;
8929;SDS011;4500;49.074;9.110;2023-06-14T13:06:14;0.50;;;0.50;;
8929;SDS011;4500;49.074;9.110;2023-06-14T13:08:42;0.50;;;0.50;;
8929;SDS011;4500;49.074;9.110;2023-06-14T13:11:10;0.50;;;0.50;;
8929;SDS011;4500;49.074;9.110;2023-06-14T13:13:38;0.70;;;0.70;;
8929;SDS011;4500;49.074;9.110;2023-06-14T13:16:05;0.90;;;0.90;;
8929;SDS011;4500;49.074;9.110;2023-06-14T13:18:33;1.10;;;1.10;;
8929;SDS011;4500;49.074;9.110;2023-06-14T13:21:01;1.00;;;1.00;;
8929;SDS011;4500;49.074;9.110;2023-06-14T13:23:29;1.13;;;1.13;;
8929;SDS011;4500;49.074;9.110;2023-06-14T13:25:57;1.00;;;1.00;;
8929;SDS011;4500;49.074;9.110;2023-06-14T13:28:26;1.03;;;1.03;;
8929;SDS011;4500;49.074;9.110;2023-06-14T13:30:54;0.80;;;0.80;;
8929;SDS011;4500;49.074;9.110;2023-06-14T13:33:22;0.80;;;0.80;;
8929;SDS011;4500;49.074;9.110;2023-06-14T13:35:51;0.67;;;0.67;;
8929;SDS011;4500;49.074;9.110;2023-06-14T13:38:19;0.57;;;0.57;;
8929;SDS011;4500;49.074;9.110;2023-06-14T13:40:47;0.60;;;0.60;;
8929;SDS011;4500;49.074;9.110;2023-06-14T13:43:14;0.60;;;0.60;;
8929;SDS011;4500;49.074;9.110;2023-06-14T13:45:42;0.50;;;0.50;;
8929;SDS011;4500;49.074;9.110;2023-06-14T13:48:09;0.60;;;0.60;;
8929;SDS011;4500;49.074;9.110;2023-06-14T13:50:37;0.90;;;0.90;;
8929;SDS011;4500;49.074;9.110;2023-06-14T13:53:05;0.97;;;0.97;;
8929;SDS011;4500;49.074;9.110;2023-06-14T13:55:32;0.93;;;0.93;;
8929;SDS011;4500;49.074;9.110;2023-06-14T13:58:00;1.03;;;1.03;;
8929;SDS011;4500;49.074;9.110;2023-06-14T14:00:27;0.90;;;0.90;;
8929;SDS011;4500;49.074;9.110;2023-06-14T14:02:55;0.90;;;0.90;;
8929;SDS011;4500;49.074;9.110;2023-06-14T14:05:24;0.80;;;0.80;;
8929;SDS011;4500;49.074;9.110;2023-06-14T14:07:55;0.73;;;0.73;;
8929;SDS011;4500;49.074;9.110;2023-06-14T14:10:24;0.67;;;0.67;;
8929;SDS011;4500;49.074;9.110;2023-06-14T14:12:51;0.70;;;0.70;;
8929;SDS011;4500;49.074;9.110;2023-06-14T14:15:20;0.63;;;0.63;;
8929;SDS011;4500;49.074;9.110;2023-06-14T14:17:48;0.50;;;0.50;;
8929;SDS011;4500;49.074;9.110;2023-06-14T14:20:16;0.50;;;0.50;;
8929;SDS011;4500;49.074;9.110;2023-06-14T14:22:45;0.50;;;0.50;;
8929;SDS011;4500;49.074;9.110;2023-06-14T14:25:13;0.50;;;0.50;;
8929;SDS011;4500;49.074;9.110;2023-06-14T14:27:41;0.50;;;0.50;;
8929;SDS011;4500;49.074;9.110;2023-06-14T14:30:08;0.60;;;0.60;;
8929;SDS011;4500;49.074;9.110;2023-06-14T14:32:36;0.70;;;0.70;;
8929;SDS011;4500;49.074;9.110;2023-06-14T14:35:04;0.90;;;0.90;;
8929;SDS011;4500;49.074;9.110;2023-06-14T14:37:33;0.93;;;0.93;;
8929;SDS011;4500;49.074;9.110;2023-06-14T14:40:00;1.10;;;1.10;;
8929;SDS011;4500;49.074;9.110;2023-06-14T14:42:28;1.17;;;1.17;;
8929;SDS011;4500;49.074;9.110;2023-06-14T14:44:55;1.20;;;1.20;;
8929;SDS011;4500;49.074;9.110;2023-06-14T14:47:23;0.83;;;0.83;;
8929;SDS011;4500;49.074;9.110;2023-06-14T14:49:50;0.60;;;0.60;;
8929;SDS011;4500;49.074;9.110;2023-06-14T14:52:18;0.50;;;0.50;;
8929;SDS011;4500;49.074;9.110;2023-06-14T14:54:50;0.60;;;0.60;;
8929;SDS011;4500;49.074;9.110;2023-06-14T14:57:18;0.50;;;0.50;;
8929;SDS011;4500;49.074;9.110;2023-06-14T14:59:45;0.50;;;0.50;;
8929;SDS011;4500;49.074;9.110;2023-06-14T15:02:13;0.50;;;0.50;;
8929;SDS011;4500;49.074;9.110;2023-06-14T15:04:41;0.50;;;0.50;;
8929;SDS011;4500;49.074;9.110;2023-06-14T15:07:10;0.60;;;0.60;;
8929;SDS011;4500;49.074;9.110;2023-06-14T15:09:37;0.70;;;0.70;;
8929;SDS011;4500;49.074;9.110;2023-06-14T15:12:08;0.67;;;0.67;;
8929;SDS011;4500;49.074;9.110;2023-06-14T15:14:37;0.70;;;0.70;;
8929;SDS011;4500;49.074;9.110;2023-06-14T15:17:05;3.47;;;2.60;;
8929;SDS011;4500;49.074;9.110;2023-06-14T15:19:34;0.90;;;0.90;;
8929;SDS011;4500;49.074;9.110;2023-06-14T15:22:02;1.07;;;1.07;;
8929;SDS011;4500;49.074;9.110;2023-06-14T15:24:32;0.87;;;0.87;;
8929;SDS011;4500;49.074;9.110;2023-06-14T15:27:09;0.60;;;0.60;;
8929;SDS011;4500;49.074;9.110;2023-06-14T15:29:40;0.60;;;0.60;;
8929;SDS011;4500;49.074;9.110;2023-06-14T15:32:08;0.70;;;0.70;;
8929;SDS011;4500;49.074;9.110;2023-06-14T15:34:36;0.73;;;0.73;;
8929;SDS011;4500;49.074;9.110;2023-06-14T15:37:06;0.97;;;0.97;;